sensor_id;sensor_type;location;lat;lon;timestamp;temperature;humidity
40828;DHT22;26549;50.918;5.338;2023-03-01T00:01:30;2.80;99.90
40828;DHT22;26549;50.918;5.338;2023-03-01T00:03:56;2.80;99.90
40828;DHT22;26549;50.918;5.338;2023-03-01T00:06:23;2.90;99.90
40828;DHT22;26549;50.918;5.338;2023-03-01T00:08:49;3.00;99.90
40828;DHT22;26549;50.918;5.338;2023-03-01T00:11:20;3.00;99.90
40828;DHT22;26549;50.918;5.338;2023-03-01T00:13:47;3.10;99.90
40828;DHT22;26549;50.918;5.338;2023-03-01T00:16:16;3.00;99.90
40828;DHT22;26549;50.918;5.338;2023-03-01T00:18:44;3.00;99.90
40828;DHT22;26549;50.918;5.338;2023-03-01T00:21:09;2.90;99.90
40828;DHT22;26549;50.918;5.338;2023-03-01T00:23:36;2.90;99.90
40828;DHT22;26549;50.918;5.338;2023-03-01T00:26:05;3.00;99.90
40828;DHT22;26549;50.918;5.338;2023-03-01T00:28:31;3.00;99.90
40828;DHT22;26549;50.918;5.338;2023-03-01T00:31:07;2.90;99.90
40828;DHT22;26549;50.918;5.338;2023-03-01T00:33:33;2.80;99.90
40828;DHT22;26549;50.918;5.338;2023-03-01T00:36:00;2.70;99.90
40828;DHT22;26549;50.918;5.338;2023-03-01T00:38:27;2.80;99.90
40828;DHT22;26549;50.918;5.338;2023-03-01T00:40:52;2.70;99.90
40828;DHT22;26549;50.918;5.338;2023-03-01T00:43:18;2.70;99.90
40828;DHT22;26549;50.918;5.338;2023-03-01T00:45:44;2.70;99.90
40828;DHT22;26549;50.918;5.338;2023-03-01T00:48:10;2.60;99.90
40828;DHT22;26549;50.918;5.338;2023-03-01T00:50:36;2.40;99.90
40828;DHT22;26549;50.918;5.338;2023-03-01T00:53:02;2.50;99.90
40828;DHT22;26549;50.918;5.338;2023-03-01T00:55:28;2.30;99.90
40828;DHT22;26549;50.918;5.338;2023-03-01T00:57:54;2.30;99.90
40828;DHT22;26549;50.918;5.338;2023-03-01T01:00:20;2.40;99.90
40828;DHT22;26549;50.918;5.338;2023-03-01T01:02:46;2.50;99.90
40828;DHT22;26549;50.918;5.338;2023-03-01T01:05:13;2.60;99.90
40828;DHT22;26549;50.918;5.338;2023-03-01T01:07:39;2.50;99.90
40828;DHT22;26549;50.918;5.338;2023-03-01T01:10:05;2.50;99.90
40828;DHT22;26549;50.918;5.338;2023-03-01T01:12:32;2.40;99.90
40828;DHT22;26549;50.918;5.338;2023-03-01T01:14:57;2.30;99.90
40828;DHT22;26549;50.918;5.338;2023-03-01T01:17:23;2.40;99.90
40828;DHT22;26549;50.918;5.338;2023-03-01T01:19:49;2.40;99.90
40828;DHT22;26549;50.918;5.338;2023-03-01T01:22:15;2.20;99.90
40828;DHT22;26549;50.918;5.338;2023-03-01T01:24:40;2.10;99.90
40828;DHT22;26549;50.918;5.338;2023-03-01T01:27:06;2.30;99.90
40828;DHT22;26549;50.918;5.338;2023-03-01T01:29:32;2.50;99.90
40828;DHT22;26549;50.918;5.338;2023-03-01T01:31:59;2.40;99.90
40828;DHT22;26549;50.918;5.338;2023-03-01T01:34:25;2.40;99.90
40828;DHT22;26549;50.918;5.338;2023-03-01T01:36:52;2.40;99.90
40828;DHT22;26549;50.918;5.338;2023-03-01T01:39:21;2.00;99.90
40828;DHT22;26549;50.918;5.338;2023-03-01T01:41:48;2.00;99.90
40828;DHT22;26549;50.918;5.338;2023-03-01T01:44:17;2.00;99.90
40828;DHT22;26549;50.918;5.338;2023-03-01T01:47:14;2.00;99.90
40828;DHT22;26549;50.918;5.338;2023-03-01T01:49:54;2.20;99.90
40828;DHT22;26549;50.918;5.338;2023-03-01T01:52:27;2.20;99.90
40828;DHT22;26549;50.918;5.338;2023-03-01T01:57:39;2.20;99.90
40828;DHT22;26549;50.918;5.338;2023-03-01T02:00:13;2.30;99.90
40828;DHT22;26549;50.918;5.338;2023-03-01T02:02:40;2.10;99.90
40828;DHT22;26549;50.918;5.338;2023-03-01T02:05:26;2.10;99.90
40828;DHT22;26549;50.918;5.338;2023-03-01T02:07:54;2.10;99.90
40828;DHT22;26549;50.918;5.338;2023-03-01T02:10:23;2.20;99.90
40828;DHT22;26549;50.918;5.338;2023-03-01T02:12:50;2.20;99.90
40828;DHT22;26549;50.918;5.338;2023-03-01T02:15:16;2.00;99.90
40828;DHT22;26549;50.918;5.338;2023-03-01T02:17:42;1.90;99.90
40828;DHT22;26549;50.918;5.338;2023-03-01T02:20:26;2.00;99.90
40828;DHT22;26549;50.918;5.338;2023-03-01T02:22:56;2.00;99.90
40828;DHT22;26549;50.918;5.338;2023-03-01T02:30:41;2.10;99.90
40828;DHT22;26549;50.918;5.338;2023-03-01T02:33:28;2.20;99.90
40828;DHT22;26549;50.918;5.338;2023-03-01T02:35:55;2.20;99.90
40828;DHT22;26549;50.918;5.338;2023-03-01T02:38:22;2.20;99.90
40828;DHT22;26549;50.918;5.338;2023-03-01T02:40:50;2.10;99.90
40828;DHT22;26549;50.918;5.338;2023-03-01T02:43:23;2.00;99.90
40828;DHT22;26549;50.918;5.338;2023-03-01T02:45:52;2.00;99.90
40828;DHT22;26549;50.918;5.338;2023-03-01T02:48:19;2.00;99.90
40828;DHT22;26549;50.918;5.338;2023-03-01T02:51:07;2.00;99.90
40828;DHT22;26549;50.918;5.338;2023-03-01T02:56:05;2.00;99.90
40828;DHT22;26549;50.918;5.338;2023-03-01T02:58:31;2.00;99.90
40828;DHT22;26549;50.918;5.338;2023-03-01T03:00:56;2.00;99.90
40828;DHT22;26549;50.918;5.338;2023-03-01T03:03:22;2.00;99.90
40828;DHT22;26549;50.918;5.338;2023-03-01T03:05:48;2.00;99.90
40828;DHT22;26549;50.918;5.338;2023-03-01T03:08:15;1.90;99.90
40828;DHT22;26549;50.918;5.338;2023-03-01T03:10:49;1.90;99.90
40828;DHT22;26549;50.918;5.338;2023-03-01T03:13:15;2.00;99.90
40828;DHT22;26549;50.918;5.338;2023-03-01T03:15:43;2.00;99.90
40828;DHT22;26549;50.918;5.338;2023-03-01T03:18:15;2.00;99.90
40828;DHT22;26549;50.918;5.338;2023-03-01T03:20:42;1.70;99.90
40828;DHT22;26549;50.918;5.338;2023-03-01T03:23:08;1.70;99.90
40828;DHT22;26549;50.918;5.338;2023-03-01T03:25:33;1.80;99.90
40828;DHT22;26549;50.918;5.338;2023-03-01T03:28:03;1.80;99.90
40828;DHT22;26549;50.918;5.338;2023-03-01T03:30:36;1.70;99.90
40828;DHT22;26549;50.918;5.338;2023-03-01T03:33:04;1.60;99.90
40828;DHT22;26549;50.918;5.338;2023-03-01T03:35:33;1.60;99.90
40828;DHT22;26549;50.918;5.338;2023-03-01T03:38:03;1.60;99.90
40828;DHT22;26549;50.918;5.338;2023-03-01T03:40:36;1.80;99.90
40828;DHT22;26549;50.918;5.338;2023-03-01T03:43:05;1.80;99.90
40828;DHT22;26549;50.918;5.338;2023-03-01T03:45:31;1.90;99.90
40828;DHT22;26549;50.918;5.338;2023-03-01T03:47:59;1.80;99.90
40828;DHT22;26549;50.918;5.338;2023-03-01T03:50:25;1.70;99.90
40828;DHT22;26549;50.918;5.338;2023-03-01T03:52:51;1.60;99.90
40828;DHT22;26549;50.918;5.338;2023-03-01T03:55:17;1.70;99.90
40828;DHT22;26549;50.918;5.338;2023-03-01T03:57:46;1.70;99.90
40828;DHT22;26549;50.918;5.338;2023-03-01T04:00:21;1.70;99.90
40828;DHT22;26549;50.918;5.338;2023-03-01T04:02:49;1.70;99.90
40828;DHT22;26549;50.918;5.338;2023-03-01T04:05:17;1.70;99.90
40828;DHT22;26549;50.918;5.338;2023-03-01T04:07:43;1.70;99.90
40828;DHT22;26549;50.918;5.338;2023-03-01T04:10:12;1.70;99.90
40828;DHT22;26549;50.918;5.338;2023-03-01T04:12:38;1.70;99.90
40828;DHT22;26549;50.918;5.338;2023-03-01T04:15:06;1.50;99.90
40828;DHT22;26549;50.918;5.338;2023-03-01T04:17:46;1.50;99.90
40828;DHT22;26549;50.918;5.338;2023-03-01T04:20:18;1.50;99.90
40828;DHT22;26549;50.918;5.338;2023-03-01T04:22:58;1.50;99.90
40828;DHT22;26549;50.918;5.338;2023-03-01T04:25:24;1.60;99.90
40828;DHT22;26549;50.918;5.338;2023-03-01T04:27:50;1.60;99.90
40828;DHT22;26549;50.918;5.338;2023-03-01T04:30:15;1.50;99.90
40828;DHT22;26549;50.918;5.338;2023-03-01T04:32:42;1.30;99.90
40828;DHT22;26549;50.918;5.338;2023-03-01T04:35:08;1.20;99.90
40828;DHT22;26549;50.918;5.338;2023-03-01T04:37:34;1.30;99.90
40828;DHT22;26549;50.918;5.338;2023-03-01T04:40:02;1.30;99.90
40828;DHT22;26549;50.918;5.338;2023-03-01T04:42:38;1.30;99.90
40828;DHT22;26549;50.918;5.338;2023-03-01T04:45:05;1.20;99.90
40828;DHT22;26549;50.918;5.338;2023-03-01T04:47:42;1.10;99.90
40828;DHT22;26549;50.918;5.338;2023-03-01T04:50:11;1.20;99.90
40828;DHT22;26549;50.918;5.338;2023-03-01T04:52:37;1.30;99.90
40828;DHT22;26549;50.918;5.338;2023-03-01T04:55:04;1.30;99.90
40828;DHT22;26549;50.918;5.338;2023-03-01T04:57:30;1.40;99.90
40828;DHT22;26549;50.918;5.338;2023-03-01T04:59:56;1.20;99.90
40828;DHT22;26549;50.918;5.338;2023-03-01T05:02:22;1.30;99.90
40828;DHT22;26549;50.918;5.338;2023-03-01T05:04:48;1.30;99.90
40828;DHT22;26549;50.918;5.338;2023-03-01T05:07:14;1.20;99.90
40828;DHT22;26549;50.918;5.338;2023-03-01T05:09:46;0.90;99.90
40828;DHT22;26549;50.918;5.338;2023-03-01T05:12:13;1.00;99.90
40828;DHT22;26549;50.918;5.338;2023-03-01T05:14:39;1.10;99.90
40828;DHT22;26549;50.918;5.338;2023-03-01T05:17:05;1.00;99.90
40828;DHT22;26549;50.918;5.338;2023-03-01T05:19:31;1.00;99.90
40828;DHT22;26549;50.918;5.338;2023-03-01T05:21:58;1.20;99.90
40828;DHT22;26549;50.918;5.338;2023-03-01T05:24:27;1.30;99.90
40828;DHT22;26549;50.918;5.338;2023-03-01T05:26:54;1.20;99.90
40828;DHT22;26549;50.918;5.338;2023-03-01T05:29:21;1.00;99.90
40828;DHT22;26549;50.918;5.338;2023-03-01T05:31:55;1.00;99.90
40828;DHT22;26549;50.918;5.338;2023-03-01T05:34:26;0.80;99.90
40828;DHT22;26549;50.918;5.338;2023-03-01T05:36:53;0.80;99.90
40828;DHT22;26549;50.918;5.338;2023-03-01T05:39:21;0.90;99.90
40828;DHT22;26549;50.918;5.338;2023-03-01T05:41:48;1.00;99.90
40828;DHT22;26549;50.918;5.338;2023-03-01T05:44:17;1.00;99.90
40828;DHT22;26549;50.918;5.338;2023-03-01T05:46:42;0.90;99.90
40828;DHT22;26549;50.918;5.338;2023-03-01T05:49:08;0.80;99.90
40828;DHT22;26549;50.918;5.338;2023-03-01T05:51:34;0.70;99.90
40828;DHT22;26549;50.918;5.338;2023-03-01T05:54:00;0.80;99.90
40828;DHT22;26549;50.918;5.338;2023-03-01T05:56:26;0.50;99.90
40828;DHT22;26549;50.918;5.338;2023-03-01T05:58:51;0.60;99.90
40828;DHT22;26549;50.918;5.338;2023-03-01T06:01:17;0.60;99.90
40828;DHT22;26549;50.918;5.338;2023-03-01T06:03:43;0.70;99.90
40828;DHT22;26549;50.918;5.338;2023-03-01T06:06:09;1.00;99.90
40828;DHT22;26549;50.918;5.338;2023-03-01T06:08:34;0.90;99.90
40828;DHT22;26549;50.918;5.338;2023-03-01T06:11:00;0.90;99.90
40828;DHT22;26549;50.918;5.338;2023-03-01T06:13:26;0.80;99.90
40828;DHT22;26549;50.918;5.338;2023-03-01T06:15:52;0.90;99.90
40828;DHT22;26549;50.918;5.338;2023-03-01T06:18:18;0.90;99.90
40828;DHT22;26549;50.918;5.338;2023-03-01T06:20:44;0.70;99.90
40828;DHT22;26549;50.918;5.338;2023-03-01T06:23:09;0.80;99.90
40828;DHT22;26549;50.918;5.338;2023-03-01T06:25:35;0.40;99.90
40828;DHT22;26549;50.918;5.338;2023-03-01T06:28:01;0.60;99.90
40828;DHT22;26549;50.918;5.338;2023-03-01T06:30:27;0.80;99.90
40828;DHT22;26549;50.918;5.338;2023-03-01T06:32:53;0.90;99.90
40828;DHT22;26549;50.918;5.338;2023-03-01T06:35:26;1.00;99.90
40828;DHT22;26549;50.918;5.338;2023-03-01T06:37:55;0.60;99.90
40828;DHT22;26549;50.918;5.338;2023-03-01T06:40:21;0.90;99.90
40828;DHT22;26549;50.918;5.338;2023-03-01T06:42:48;0.70;99.90
40828;DHT22;26549;50.918;5.338;2023-03-01T06:45:15;0.80;99.90
40828;DHT22;26549;50.918;5.338;2023-03-01T06:47:41;0.90;99.90
40828;DHT22;26549;50.918;5.338;2023-03-01T06:50:08;1.00;99.90
40828;DHT22;26549;50.918;5.338;2023-03-01T06:52:34;0.90;99.90
40828;DHT22;26549;50.918;5.338;2023-03-01T06:55:00;1.10;99.90
40828;DHT22;26549;50.918;5.338;2023-03-01T06:57:27;1.00;99.90
40828;DHT22;26549;50.918;5.338;2023-03-01T06:59:53;1.00;99.90
40828;DHT22;26549;50.918;5.338;2023-03-01T07:02:19;1.00;99.90
40828;DHT22;26549;50.918;5.338;2023-03-01T07:04:45;1.10;99.90
40828;DHT22;26549;50.918;5.338;2023-03-01T07:07:11;1.10;99.90
40828;DHT22;26549;50.918;5.338;2023-03-01T07:09:37;1.20;99.90
40828;DHT22;26549;50.918;5.338;2023-03-01T07:12:04;1.20;99.90
40828;DHT22;26549;50.918;5.338;2023-03-01T07:14:30;1.20;99.90
40828;DHT22;26549;50.918;5.338;2023-03-01T07:16:56;1.30;99.90
40828;DHT22;26549;50.918;5.338;2023-03-01T07:19:22;1.40;99.90
40828;DHT22;26549;50.918;5.338;2023-03-01T07:21:48;1.40;99.90
40828;DHT22;26549;50.918;5.338;2023-03-01T07:24:14;1.30;99.90
40828;DHT22;26549;50.918;5.338;2023-03-01T07:26:41;1.40;99.90
40828;DHT22;26549;50.918;5.338;2023-03-01T07:29:07;1.50;99.90
40828;DHT22;26549;50.918;5.338;2023-03-01T07:31:35;1.60;99.90
40828;DHT22;26549;50.918;5.338;2023-03-01T07:34:02;1.60;99.90
40828;DHT22;26549;50.918;5.338;2023-03-01T07:36:28;1.60;99.90
40828;DHT22;26549;50.918;5.338;2023-03-01T07:38:55;1.60;99.90
40828;DHT22;26549;50.918;5.338;2023-03-01T07:41:21;1.90;99.90
40828;DHT22;26549;50.918;5.338;2023-03-01T07:43:47;1.90;99.90
40828;DHT22;26549;50.918;5.338;2023-03-01T07:46:13;1.90;99.90
40828;DHT22;26549;50.918;5.338;2023-03-01T07:48:39;1.90;99.90
40828;DHT22;26549;50.918;5.338;2023-03-01T07:51:07;1.80;99.90
40828;DHT22;26549;50.918;5.338;2023-03-01T07:53:33;1.80;99.90
40828;DHT22;26549;50.918;5.338;2023-03-01T07:56:04;1.50;99.90
40828;DHT22;26549;50.918;5.338;2023-03-01T07:58:31;1.70;99.90
40828;DHT22;26549;50.918;5.338;2023-03-01T08:01:03;1.80;99.90
40828;DHT22;26549;50.918;5.338;2023-03-01T08:03:29;2.00;99.90
40828;DHT22;26549;50.918;5.338;2023-03-01T08:06:01;2.10;99.90
40828;DHT22;26549;50.918;5.338;2023-03-01T08:08:27;2.30;99.90
40828;DHT22;26549;50.918;5.338;2023-03-01T08:10:58;2.50;99.90
40828;DHT22;26549;50.918;5.338;2023-03-01T08:13:25;2.60;99.90
40828;DHT22;26549;50.918;5.338;2023-03-01T08:15:51;2.60;99.90
40828;DHT22;26549;50.918;5.338;2023-03-01T08:18:18;2.60;99.90
40828;DHT22;26549;50.918;5.338;2023-03-01T08:20:45;2.40;99.90
40828;DHT22;26549;50.918;5.338;2023-03-01T08:23:11;2.60;99.90
40828;DHT22;26549;50.918;5.338;2023-03-01T08:25:37;2.70;99.90
40828;DHT22;26549;50.918;5.338;2023-03-01T08:28:04;2.80;99.90
40828;DHT22;26549;50.918;5.338;2023-03-01T08:30:30;2.80;99.90
40828;DHT22;26549;50.918;5.338;2023-03-01T08:32:56;3.00;99.90
40828;DHT22;26549;50.918;5.338;2023-03-01T08:35:22;2.90;99.90
40828;DHT22;26549;50.918;5.338;2023-03-01T08:37:48;2.90;99.90
40828;DHT22;26549;50.918;5.338;2023-03-01T08:40:15;3.00;99.90
40828;DHT22;26549;50.918;5.338;2023-03-01T08:42:42;2.90;99.90
40828;DHT22;26549;50.918;5.338;2023-03-01T08:45:11;2.90;99.90
40828;DHT22;26549;50.918;5.338;2023-03-01T08:47:39;3.10;99.90
40828;DHT22;26549;50.918;5.338;2023-03-01T08:50:06;3.20;99.90
40828;DHT22;26549;50.918;5.338;2023-03-01T08:52:32;3.20;99.90
40828;DHT22;26549;50.918;5.338;2023-03-01T08:54:58;3.10;99.90
40828;DHT22;26549;50.918;5.338;2023-03-01T08:57:26;3.30;99.90
40828;DHT22;26549;50.918;5.338;2023-03-01T08:59:52;3.50;99.90
40828;DHT22;26549;50.918;5.338;2023-03-01T09:02:21;3.40;99.90
40828;DHT22;26549;50.918;5.338;2023-03-01T09:04:47;3.50;99.90
40828;DHT22;26549;50.918;5.338;2023-03-01T09:07:13;3.30;99.90
40828;DHT22;26549;50.918;5.338;2023-03-01T09:09:39;3.50;99.90
40828;DHT22;26549;50.918;5.338;2023-03-01T09:12:05;3.60;99.90
40828;DHT22;26549;50.918;5.338;2023-03-01T09:14:31;3.70;99.90
40828;DHT22;26549;50.918;5.338;2023-03-01T09:16:57;3.60;99.90
40828;DHT22;26549;50.918;5.338;2023-03-01T09:19:23;3.60;99.90
40828;DHT22;26549;50.918;5.338;2023-03-01T09:21:50;3.60;99.90
40828;DHT22;26549;50.918;5.338;2023-03-01T09:24:22;3.20;99.90
40828;DHT22;26549;50.918;5.338;2023-03-01T09:26:49;3.40;99.90
40828;DHT22;26549;50.918;5.338;2023-03-01T09:29:16;3.80;99.90
40828;DHT22;26549;50.918;5.338;2023-03-01T09:31:42;3.60;99.90
40828;DHT22;26549;50.918;5.338;2023-03-01T09:34:09;3.80;99.90
40828;DHT22;26549;50.918;5.338;2023-03-01T09:36:35;3.90;99.90
40828;DHT22;26549;50.918;5.338;2023-03-01T09:39:02;4.10;99.90
40828;DHT22;26549;50.918;5.338;2023-03-01T09:46:54;4.50;99.90
40828;DHT22;26549;50.918;5.338;2023-03-01T09:49:40;4.70;99.90
40828;DHT22;26549;50.918;5.338;2023-03-01T09:54:49;4.80;99.60
40828;DHT22;26549;50.918;5.338;2023-03-01T10:00:07;5.00;99.10
40828;DHT22;26549;50.918;5.338;2023-03-01T10:02:58;5.00;99.80
40828;DHT22;26549;50.918;5.338;2023-03-01T10:05:50;5.20;99.20
40828;DHT22;26549;50.918;5.338;2023-03-01T10:08:33;5.10;98.80
40828;DHT22;26549;50.918;5.338;2023-03-01T10:11:03;5.10;99.60
40828;DHT22;26549;50.918;5.338;2023-03-01T10:14:09;5.20;98.50
40828;DHT22;26549;50.918;5.338;2023-03-01T10:16:54;5.20;98.90
40828;DHT22;26549;50.918;5.338;2023-03-01T10:19:25;5.30;98.60
40828;DHT22;26549;50.918;5.338;2023-03-01T10:21:54;5.00;98.90
40828;DHT22;26549;50.918;5.338;2023-03-01T10:24:23;4.80;98.70
40828;DHT22;26549;50.918;5.338;2023-03-01T10:27:04;4.70;98.90
40828;DHT22;26549;50.918;5.338;2023-03-01T10:32:29;4.70;99.80
40828;DHT22;26549;50.918;5.338;2023-03-01T10:34:55;5.00;98.40
40828;DHT22;26549;50.918;5.338;2023-03-01T10:37:22;5.20;98.10
40828;DHT22;26549;50.918;5.338;2023-03-01T10:40:09;5.10;97.60
40828;DHT22;26549;50.918;5.338;2023-03-01T10:42:46;5.20;97.80
40828;DHT22;26549;50.918;5.338;2023-03-01T10:48:20;5.10;97.20
40828;DHT22;26549;50.918;5.338;2023-03-01T10:51:04;5.20;97.50
40828;DHT22;26549;50.918;5.338;2023-03-01T10:53:41;5.40;97.20
40828;DHT22;26549;50.918;5.338;2023-03-01T10:56:10;5.50;96.90
40828;DHT22;26549;50.918;5.338;2023-03-01T10:58:40;5.60;97.20
40828;DHT22;26549;50.918;5.338;2023-03-01T11:01:25;5.60;97.00
40828;DHT22;26549;50.918;5.338;2023-03-01T11:04:11;5.70;96.90
40828;DHT22;26549;50.918;5.338;2023-03-01T11:06:41;5.80;96.30
40828;DHT22;26549;50.918;5.338;2023-03-01T11:09:22;5.80;96.50
40828;DHT22;26549;50.918;5.338;2023-03-01T11:11:53;5.60;95.60
40828;DHT22;26549;50.918;5.338;2023-03-01T11:14:25;5.70;95.80
40828;DHT22;26549;50.918;5.338;2023-03-01T11:17:03;5.80;96.00
40828;DHT22;26549;50.918;5.338;2023-03-01T11:19:33;5.90;95.00
40828;DHT22;26549;50.918;5.338;2023-03-01T11:22:28;6.00;96.20
40828;DHT22;26549;50.918;5.338;2023-03-01T11:24:55;6.10;95.00
40828;DHT22;26549;50.918;5.338;2023-03-01T11:27:36;6.30;94.10
40828;DHT22;26549;50.918;5.338;2023-03-01T11:30:07;6.30;95.50
40828;DHT22;26549;50.918;5.338;2023-03-01T11:35:22;6.60;94.40
40828;DHT22;26549;50.918;5.338;2023-03-01T11:40:37;6.50;93.80
40828;DHT22;26549;50.918;5.338;2023-03-01T11:45:56;6.10;94.30
40828;DHT22;26549;50.918;5.338;2023-03-01T11:54:29;6.40;93.70
40828;DHT22;26549;50.918;5.338;2023-03-01T11:57:04;6.60;94.40
40828;DHT22;26549;50.918;5.338;2023-03-01T12:22:01;6.80;92.90
40828;DHT22;26549;50.918;5.338;2023-03-01T12:27:50;6.90;91.40
40828;DHT22;26549;50.918;5.338;2023-03-01T12:31:21;7.10;92.20
40828;DHT22;26549;50.918;5.338;2023-03-01T12:40:11;7.30;91.00
40828;DHT22;26549;50.918;5.338;2023-03-01T12:45:42;7.10;91.60
40828;DHT22;26549;50.918;5.338;2023-03-01T12:48:28;7.10;91.60
40828;DHT22;26549;50.918;5.338;2023-03-01T12:51:01;7.20;91.00
40828;DHT22;26549;50.918;5.338;2023-03-01T12:53:48;7.20;91.30
40828;DHT22;26549;50.918;5.338;2023-03-01T12:56:22;7.10;91.30
40828;DHT22;26549;50.918;5.338;2023-03-01T13:05:00;7.40;90.70
40828;DHT22;26549;50.918;5.338;2023-03-01T13:07:55;7.30;90.50
40828;DHT22;26549;50.918;5.338;2023-03-01T13:15:35;7.10;91.10
40828;DHT22;26549;50.918;5.338;2023-03-01T13:20:58;7.20;91.20
40828;DHT22;26549;50.918;5.338;2023-03-01T13:23:27;7.20;90.80
40828;DHT22;26549;50.918;5.338;2023-03-01T13:28:41;7.10;91.30
40828;DHT22;26549;50.918;5.338;2023-03-01T13:33:59;7.50;90.10
40828;DHT22;26549;50.918;5.338;2023-03-01T13:39:26;7.10;90.00
40828;DHT22;26549;50.918;5.338;2023-03-01T13:41:54;7.20;90.50
40828;DHT22;26549;50.918;5.338;2023-03-01T13:46:59;7.10;91.00
40828;DHT22;26549;50.918;5.338;2023-03-01T13:49:29;7.20;90.50
40828;DHT22;26549;50.918;5.338;2023-03-01T13:51:59;7.20;90.80
40828;DHT22;26549;50.918;5.338;2023-03-01T13:54:33;7.30;90.80
40828;DHT22;26549;50.918;5.338;2023-03-01T13:57:00;7.10;90.80
40828;DHT22;26549;50.918;5.338;2023-03-01T13:59:27;7.10;90.90
40828;DHT22;26549;50.918;5.338;2023-03-01T14:01:58;7.00;91.00
40828;DHT22;26549;50.918;5.338;2023-03-01T14:04:29;6.90;91.50
40828;DHT22;26549;50.918;5.338;2023-03-01T14:07:29;7.10;91.60
40828;DHT22;26549;50.918;5.338;2023-03-01T14:10:03;7.20;91.10
40828;DHT22;26549;50.918;5.338;2023-03-01T14:15:25;7.70;89.90
40828;DHT22;26549;50.918;5.338;2023-03-01T14:20:30;7.80;90.10
40828;DHT22;26549;50.918;5.338;2023-03-01T14:22:59;8.00;90.00
40828;DHT22;26549;50.918;5.338;2023-03-01T14:25:34;8.10;89.70
40828;DHT22;26549;50.918;5.338;2023-03-01T14:28:21;8.20;87.60
40828;DHT22;26549;50.918;5.338;2023-03-01T15:38:50;7.80;88.60
40828;DHT22;26549;50.918;5.338;2023-03-01T15:41:38;7.80;88.40
40828;DHT22;26549;50.918;5.338;2023-03-01T15:44:16;7.80;88.30
40828;DHT22;26549;50.918;5.338;2023-03-01T15:46:46;7.90;89.10
40828;DHT22;26549;50.918;5.338;2023-03-01T15:49:40;8.00;87.70
40828;DHT22;26549;50.918;5.338;2023-03-01T15:52:13;7.70;88.00
40828;DHT22;26549;50.918;5.338;2023-03-01T15:54:44;7.60;88.40
40828;DHT22;26549;50.918;5.338;2023-03-01T15:57:14;7.50;86.40
40828;DHT22;26549;50.918;5.338;2023-03-01T15:59:41;7.50;87.00
40828;DHT22;26549;50.918;5.338;2023-03-01T16:02:11;7.60;86.90
40828;DHT22;26549;50.918;5.338;2023-03-01T16:04:39;7.80;87.30
40828;DHT22;26549;50.918;5.338;2023-03-01T16:07:05;7.70;86.30
40828;DHT22;26549;50.918;5.338;2023-03-01T16:09:31;7.70;85.60
40828;DHT22;26549;50.918;5.338;2023-03-01T16:11:57;7.70;85.60
40828;DHT22;26549;50.918;5.338;2023-03-01T16:14:24;7.80;86.20
40828;DHT22;26549;50.918;5.338;2023-03-01T16:16:50;7.80;85.80
40828;DHT22;26549;50.918;5.338;2023-03-01T16:19:16;7.70;86.50
40828;DHT22;26549;50.918;5.338;2023-03-01T16:21:42;7.70;86.50
40828;DHT22;26549;50.918;5.338;2023-03-01T16:24:09;7.70;86.30
40828;DHT22;26549;50.918;5.338;2023-03-01T16:26:36;7.70;87.40
40828;DHT22;26549;50.918;5.338;2023-03-01T16:29:02;7.70;86.10
40828;DHT22;26549;50.918;5.338;2023-03-01T16:31:28;7.80;86.40
40828;DHT22;26549;50.918;5.338;2023-03-01T16:33:56;7.70;86.00
40828;DHT22;26549;50.918;5.338;2023-03-01T16:36:23;7.70;87.10
40828;DHT22;26549;50.918;5.338;2023-03-01T16:38:50;7.70;86.60
40828;DHT22;26549;50.918;5.338;2023-03-01T16:41:19;7.70;86.80
40828;DHT22;26549;50.918;5.338;2023-03-01T16:43:46;7.70;86.80
40828;DHT22;26549;50.918;5.338;2023-03-01T16:46:21;7.70;86.60
40828;DHT22;26549;50.918;5.338;2023-03-01T16:48:47;7.70;87.30
40828;DHT22;26549;50.918;5.338;2023-03-01T16:51:14;7.70;87.40
40828;DHT22;26549;50.918;5.338;2023-03-01T16:53:40;7.60;87.80
40828;DHT22;26549;50.918;5.338;2023-03-01T16:56:08;7.50;88.00
40828;DHT22;26549;50.918;5.338;2023-03-01T16:58:35;7.50;87.40
40828;DHT22;26549;50.918;5.338;2023-03-01T17:01:15;7.30;88.00
40828;DHT22;26549;50.918;5.338;2023-03-01T17:03:42;7.40;88.00
40828;DHT22;26549;50.918;5.338;2023-03-01T17:06:10;7.40;88.90
40828;DHT22;26549;50.918;5.338;2023-03-01T17:08:37;7.30;88.20
40828;DHT22;26549;50.918;5.338;2023-03-01T17:11:15;7.30;89.20
40828;DHT22;26549;50.918;5.338;2023-03-01T17:13:41;7.40;88.00
40828;DHT22;26549;50.918;5.338;2023-03-01T17:16:09;7.30;88.70
40828;DHT22;26549;50.918;5.338;2023-03-01T17:18:36;7.20;88.90
40828;DHT22;26549;50.918;5.338;2023-03-01T17:21:02;7.20;88.90
40828;DHT22;26549;50.918;5.338;2023-03-01T17:23:30;7.10;89.20
40828;DHT22;26549;50.918;5.338;2023-03-01T17:25:57;7.10;89.30
40828;DHT22;26549;50.918;5.338;2023-03-01T17:28:26;7.10;89.40
40828;DHT22;26549;50.918;5.338;2023-03-01T17:30:52;7.10;89.40
40828;DHT22;26549;50.918;5.338;2023-03-01T17:33:18;7.10;89.60
40828;DHT22;26549;50.918;5.338;2023-03-01T17:35:45;6.90;90.00
40828;DHT22;26549;50.918;5.338;2023-03-01T17:38:12;6.80;90.20
40828;DHT22;26549;50.918;5.338;2023-03-01T17:40:40;6.90;90.30
40828;DHT22;26549;50.918;5.338;2023-03-01T17:43:07;6.70;90.40
40828;DHT22;26549;50.918;5.338;2023-03-01T17:45:35;6.80;90.30
40828;DHT22;26549;50.918;5.338;2023-03-01T17:48:01;6.90;90.00
40828;DHT22;26549;50.918;5.338;2023-03-01T17:50:27;6.80;90.30
40828;DHT22;26549;50.918;5.338;2023-03-01T17:52:54;6.80;90.30
40828;DHT22;26549;50.918;5.338;2023-03-01T17:55:23;6.70;90.60
40828;DHT22;26549;50.918;5.338;2023-03-01T17:57:49;6.70;90.40
40828;DHT22;26549;50.918;5.338;2023-03-01T18:00:16;6.60;91.00
40828;DHT22;26549;50.918;5.338;2023-03-01T18:02:43;6.50;90.80
40828;DHT22;26549;50.918;5.338;2023-03-01T18:05:10;6.50;91.00
40828;DHT22;26549;50.918;5.338;2023-03-01T18:07:36;6.50;91.10
40828;DHT22;26549;50.918;5.338;2023-03-01T18:10:03;6.40;91.10
40828;DHT22;26549;50.918;5.338;2023-03-01T18:12:30;6.40;91.40
40828;DHT22;26549;50.918;5.338;2023-03-01T18:14:56;6.40;91.10
40828;DHT22;26549;50.918;5.338;2023-03-01T18:17:23;6.30;91.40
40828;DHT22;26549;50.918;5.338;2023-03-01T18:19:50;6.30;91.20
40828;DHT22;26549;50.918;5.338;2023-03-01T18:22:16;6.40;91.20
40828;DHT22;26549;50.918;5.338;2023-03-01T18:24:43;6.30;91.30
40828;DHT22;26549;50.918;5.338;2023-03-01T18:27:10;6.30;91.50
40828;DHT22;26549;50.918;5.338;2023-03-01T18:29:37;6.30;91.40
40828;DHT22;26549;50.918;5.338;2023-03-01T18:32:03;6.20;91.60
40828;DHT22;26549;50.918;5.338;2023-03-01T18:34:29;6.10;91.80
40828;DHT22;26549;50.918;5.338;2023-03-01T18:36:55;6.10;91.70
40828;DHT22;26549;50.918;5.338;2023-03-01T18:39:21;6.00;92.00
40828;DHT22;26549;50.918;5.338;2023-03-01T18:41:47;6.00;92.10
40828;DHT22;26549;50.918;5.338;2023-03-01T18:44:13;5.90;92.20
40828;DHT22;26549;50.918;5.338;2023-03-01T18:46:39;5.90;92.20
40828;DHT22;26549;50.918;5.338;2023-03-01T18:49:06;5.80;92.40
40828;DHT22;26549;50.918;5.338;2023-03-01T18:51:32;5.90;92.20
40828;DHT22;26549;50.918;5.338;2023-03-01T18:53:59;5.80;92.40